Time;durP1;ratioP1;P1;durP2;ratioP2;P2;SDS_P1;SDS_P2;PMS_P1;PMS_P2;Temp;Humidity;BMP_temperature;BMP_pressure;BME280_temperature;BME280_humidity;BME280_pressure;Samples;Min_cycle;Max_cycle;Signal;HPM_P1;HPM_P2
2023/08/14 00:02:34;;;;;;;2.50;1.40;;;;;;;;;;10589320;27;20650;-76
2023/08/14 00:07:40;;;;;;;0.88;0.60;;;;;;;;;;10584002;27;20561;-76
2023/08/14 00:12:44;;;;;;;1.13;1.02;;;;;;;;;;10586229;27;20096;-76
2023/08/14 00:17:48;;;;;;;1.92;1.15;;;;;;;;;;10593579;27;20039;-76
2023/08/14 00:22:51;;;;;;;2.55;1.27;;;;;;;;;;10591309;27;20039;-77
2023/08/14 00:27:54;;;;;;;1.47;1.00;;;;;;;;;;10588741;27;20508;-77
2023/08/14 00:32:58;;;;;;;2.13;1.10;;;;;;;;;;10590099;27;20301;-76
2023/08/14 00:38:01;;;;;;;1.25;1.00;;;;;;;;;;10584335;27;20162;-76
2023/08/14 00:43:04;;;;;;;3.58;1.17;;;;;;;;;;10601484;27;20052;-76
2023/08/14 00:48:08;;;;;;;1.10;0.85;;;;;;;;;;10598926;27;20047;-76
2023/08/14 00:53:11;;;;;;;2.60;1.00;;;;;;;;;;10597350;27;20501;-76
2023/08/14 00:58:14;;;;;;;1.52;1.10;;;;;;;;;;10604095;27;20486;-76
2023/08/14 01:03:20;;;;;;;1.00;0.90;;;;;;;;;;10597805;27;20047;-77
2023/08/14 01:08:24;;;;;;;1.65;1.10;;;;;;;;;;10590579;27;20041;-76
2023/08/14 01:13:31;;;;;;;1.27;0.80;;;;;;;;;;10583295;27;20038;-76
2023/08/14 01:18:37;;;;;;;1.65;1.10;;;;;;;;;;10588556;27;20035;-76
2023/08/14 01:23:50;;;;;;;1.30;1.10;;;;;;;;;;10596963;27;20136;-76
2023/08/14 01:28:54;;;;;;;2.63;1.10;;;;;;;;;;10600536;27;20088;-76
2023/08/14 01:33:58;;;;;;;1.75;0.90;;;;;;;;;;10592409;27;20039;-76
2023/08/14 01:39:00;;;;;;;;;;;;;;;;;;10593353;27;20525;-76
2023/08/14 01:44:06;;;;;;;0.80;0.80;;;;;;;;;;10592542;27;19923;-77
2023/08/14 01:49:09;;;;;;;1.10;0.85;;;;;;;;;;10588371;27;20035;-76
2023/08/14 01:54:13;;;;;;;1.25;0.93;;;;;;;;;;10590408;27;20573;-76
2023/08/14 01:59:17;;;;;;;1.48;1.20;;;;;;;;;;10592062;27;20027;-76
2023/08/14 02:04:19;;;;;;;2.50;1.17;;;;;;;;;;10588128;27;20048;-77
2023/08/14 02:09:22;;;;;;;1.52;0.98;;;;;;;;;;10586586;27;20122;-76
2023/08/14 02:14:27;;;;;;;1.77;0.93;;;;;;;;;;10594427;27;20088;-76
2023/08/14 02:19:30;;;;;;;1.92;1.17;;;;;;;;;;10591936;27;20100;-76
2023/08/14 02:24:33;;;;;;;4.50;1.40;;;;;;;;;;10602185;27;20036;-75
2023/08/14 02:29:37;;;;;;;2.67;1.40;;;;;;;;;;10595708;27;20080;-76
2023/08/14 02:34:44;;;;;;;2.50;1.40;;;;;;;;;;10589306;27;20918;-76
2023/08/14 02:39:47;;;;;;;3.03;1.67;;;;;;;;;;10588073;27;20470;-76
2023/08/14 02:44:51;;;;;;;2.28;1.40;;;;;;;;;;10591945;27;20043;-76
2023/08/14 02:49:54;;;;;;;2.45;1.60;;;;;;;;;;10597758;27;20043;-76
2023/08/14 02:54:57;;;;;;;3.65;1.60;;;;;;;;;;10582957;27;20047;-76
2023/08/14 03:00:01;;;;;;;2.28;1.60;;;;;;;;;;10588376;27;20042;-76
2023/08/14 03:05:04;;;;;;;2.50;1.38;;;;;;;;;;10595351;27;20455;-76
2023/08/14 03:10:07;;;;;;;;;;;;;;;;;;10591274;27;20038;-76
2023/08/14 03:15:12;;;;;;;2.70;1.58;;;;;;;;;;10594864;27;19920;-75
2023/08/14 03:20:14;;;;;;;2.65;1.30;;;;;;;;;;10592114;27;20096;-76
2023/08/14 03:25:17;;;;;;;2.33;1.48;;;;;;;;;;10595260;27;20058;-76
2023/08/14 03:30:22;;;;;;;1.77;1.17;;;;;;;;;;10592794;27;20049;-76
2023/08/14 03:35:25;;;;;;;2.65;1.50;;;;;;;;;;10590884;27;20536;-76
2023/08/14 03:40:28;;;;;;;3.22;1.67;;;;;;;;;;10586328;27;20067;-76
2023/08/14 03:45:32;;;;;;;4.38;1.67;;;;;;;;;;10589231;27;20066;-76
2023/08/14 03:50:35;;;;;;;1.75;1.20;;;;;;;;;;10571234;27;20106;-76
2023/08/14 03:55:38;;;;;;;2.78;1.35;;;;;;;;;;10595276;27;20039;-76
2023/08/14 04:00:43;;;;;;;6.65;1.88;;;;;;;;;;10590428;27;20046;-76
2023/08/14 04:05:46;;;;;;;2.13;1.33;;;;;;;;;;10597441;27;20055;-75
2023/08/14 04:10:53;;;;;;;2.42;0.75;;;;;;;;;;10581777;27;20095;-76
2023/08/14 04:15:59;;;;;;;2.65;1.00;;;;;;;;;;10594999;27;20116;-76
2023/08/14 04:21:03;;;;;;;1.05;0.85;;;;;;;;;;10597535;27;20043;-76
2023/08/14 04:26:06;;;;;;;1.17;0.75;;;;;;;;;;10602987;27;20104;-76
2023/08/14 04:31:10;;;;;;;1.97;1.37;;;;;;;;;;10604950;27;20126;-76
2023/08/14 04:36:13;;;;;;;2.42;1.55;;;;;;;;;;10593402;27;21161;-76
2023/08/14 04:41:16;;;;;;;1.80;1.35;;;;;;;;;;10600748;27;20528;-76
2023/08/14 04:46:29;;;;;;;2.72;1.60;;;;;;;;;;10595947;27;20043;-76
2023/08/14 04:51:42;;;;;;;1.40;1.30;;;;;;;;;;10599226;27;20071;-76
2023/08/14 04:56:45;;;;;;;3.20;1.58;;;;;;;;;;10593336;27;20056;-76
2023/08/14 05:01:50;;;;;;;2.38;1.70;;;;;;;;;;10596152;27;20477;-75
2023/08/14 05:06:53;;;;;;;2.75;1.65;;;;;;;;;;10606824;27;20134;-76
2023/08/14 05:11:56;;;;;;;2.97;1.90;;;;;;;;;;10589844;27;20043;-76
2023/08/14 05:17:00;;;;;;;2.65;1.80;;;;;;;;;;10601344;27;20050;-76
2023/08/14 05:22:03;;;;;;;2.97;1.70;;;;;;;;;;10596874;27;20062;-76
2023/08/14 05:27:05;;;;;;;3.55;1.73;;;;;;;;;;10597136;27;20104;-76
2023/08/14 05:32:10;;;;;;;3.85;1.92;;;;;;;;;;10590327;27;20043;-76
2023/08/14 05:37:13;;;;;;;2.70;1.70;;;;;;;;;;10591678;27;20077;-76
2023/08/14 05:42:16;;;;;;;6.07;2.08;;;;;;;;;;10591743;27;20083;-77
2023/08/14 05:47:20;;;;;;;5.13;1.80;;;;;;;;;;10603571;27;20043;-76
2023/08/14 05:52:23;;;;;;;5.18;1.90;;;;;;;;;;10597814;27;20476;-76
2023/08/14 05:57:26;;;;;;;;;;;;;;;;;;10600083;27;20050;-77
2023/08/14 06:02:30;;;;;;;5.63;1.90;;;;;;;;;;10593667;27;20482;-77
2023/08/14 06:07:33;;;;;;;3.85;1.90;;;;;;;;;;10590805;27;20093;-77
2023/08/14 06:12:36;;;;;;;2.47;1.70;;;;;;;;;;10589753;27;20057;-77
2023/08/14 06:17:39;;;;;;;;;;;;;;;;;;10595166;27;20058;-77
2023/08/14 06:22:45;;;;;;;3.28;2.03;;;;;;;;;;10593741;27;19923;-77
2023/08/14 06:27:48;;;;;;;4.20;1.60;;;;;;;;;;10595129;27;20485;-76
2023/08/14 06:32:51;;;;;;;;;;;;;;;;;;10591426;27;20457;-76
2023/08/14 06:37:55;;;;;;;3.05;1.35;;;;;;;;;;10595451;27;19923;-76
2023/08/14 06:42:59;;;;;;;2.75;1.83;;;;;;;;;;10596216;27;20050;-76
2023/08/14 06:48:02;;;;;;;2.47;1.90;;;;;;;;;;10587304;27;20047;-76
2023/08/14 06:53:06;;;;;;;3.08;1.48;;;;;;;;;;10600842;27;20474;-76
2023/08/14 06:58:08;;;;;;;5.25;2.60;;;;;;;;;;10591160;27;20069;-76
2023/08/14 07:03:11;;;;;;;2.33;1.65;;;;;;;;;;10597505;27;20059;-76
2023/08/14 07:08:15;;;;;;;2.50;1.60;;;;;;;;;;10587348;27;20035;-76
2023/08/14 07:13:18;;;;;;;1.98;1.70;;;;;;;;;;10588639;27;20052;-77
2023/08/14 07:18:21;;;;;;;6.57;2.08;;;;;;;;;;10591051;27;20488;-76
2023/08/14 07:23:25;;;;;;;1.88;0.80;;;;;;;;;;10592441;27;20130;-77
2023/08/14 07:28:27;;;;;;;2.67;1.50;;;;;;;;;;10599562;27;20055;-76
2023/08/14 07:33:30;;;;;;;;;;;;;;;;;;10597891;27;20051;-77
2023/08/14 07:38:34;;;;;;;2.70;1.98;;;;;;;;;;10592232;27;19927;-76
2023/08/14 07:43:37;;;;;;;3.35;1.60;;;;;;;;;;10597643;27;20194;-76
2023/08/14 07:48:39;;;;;;;6.70;1.95;;;;;;;;;;10592547;27;20050;-77
2023/08/14 07:53:43;;;;;;;2.13;1.70;;;;;;;;;;10591442;27;20070;-77
2023/08/14 07:58:46;;;;;;;3.13;2.20;;;;;;;;;;10601100;27;20047;-77
2023/08/14 08:03:49;;;;;;;2.80;1.95;;;;;;;;;;10603307;27;20189;-77
2023/08/14 08:08:53;;;;;;;2.33;1.70;;;;;;;;;;10604915;27;20061;-76
2023/08/14 08:13:58;;;;;;;2.20;1.63;;;;;;;;;;10597468;27;20114;-77
2023/08/14 08:19:03;;;;;;;2.30;2.10;;;;;;;;;;10599603;27;20038;-77
2023/08/14 08:24:07;;;;;;;3.03;2.15;;;;;;;;;;10601159;27;20051;-77
2023/08/14 08:29:10;;;;;;;3.38;2.40;;;;;;;;;;10601924;27;20462;-78
2023/08/14 08:34:13;;;;;;;2.03;1.83;;;;;;;;;;10601736;27;20112;-77
2023/08/14 08:39:17;;;;;;;1.83;1.65;;;;;;;;;;10605668;27;20075;-77
2023/08/14 08:44:22;;;;;;;2.75;1.98;;;;;;;;;;10595856;27;20396;-78
2023/08/14 08:49:25;;;;;;;4.18;2.10;;;;;;;;;;10610659;27;20045;-78
2023/08/14 08:54:32;;;;;;;2.40;2.17;;;;;;;;;;10590093;27;20163;-77
2023/08/14 08:59:35;;;;;;;4.72;2.25;;;;;;;;;;10594810;27;20561;-77
2023/08/14 09:04:38;;;;;;;2.20;2.00;;;;;;;;;;10600902;27;20039;-77
2023/08/14 09:09:42;;;;;;;2.28;1.90;;;;;;;;;;10603162;27;20091;-78
2023/08/14 09:14:46;;;;;;;2.42;2.20;;;;;;;;;;10593866;27;20047;-78
2023/08/14 09:19:48;;;;;;;5.05;2.30;;;;;;;;;;10597868;27;20131;-78
2023/08/14 09:24:52;;;;;;;2.80;2.03;;;;;;;;;;10595343;27;20100;-78
2023/08/14 09:29:56;;;;;;;2.92;2.28;;;;;;;;;;10602292;27;20040;-76
2023/08/14 09:34:59;;;;;;;3.65;2.30;;;;;;;;;;10602940;27;20048;-76
2023/08/14 09:40:15;;;;;;;2.95;2.53;;;;;;;;;;10597359;27;20048;-77
2023/08/14 09:45:23;;;;;;;2.40;2.08;;;;;;;;;;10597505;27;20455;-77
2023/08/14 09:50:28;;;;;;;3.20;2.90;;;;;;;;;;10597097;27;20554;-77
2023/08/14 09:55:34;;;;;;;2.60;2.40;;;;;;;;;;10598691;27;20070;-77
2023/08/14 10:00:38;;;;;;;3.75;2.83;;;;;;;;;;10572438;27;20039;-77
2023/08/14 10:05:41;;;;;;;4.03;2.85;;;;;;;;;;10603488;27;20046;-78
2023/08/14 10:10:45;;;;;;;2.38;2.15;;;;;;;;;;10596249;27;20073;-78
2023/08/14 10:16:10;;;;;;;2.45;2.28;;;;;;;;;;10596281;27;20142;-78
2023/08/14 10:21:15;;;;;;;2.80;2.60;;;;;;;;;;10585123;27;20074;-78
2023/08/14 10:26:20;;;;;;;3.17;2.75;;;;;;;;;;10599480;27;20052;-77
2023/08/14 10:31:23;;;;;;;3.17;2.88;;;;;;;;;;10593333;27;20047;-79
2023/08/14 10:36:27;;;;;;;4.65;3.10;;;;;;;;;;10594270;27;20322;-79
2023/08/14 10:41:34;;;;;;;5.15;3.45;;;;;;;;;;10588614;27;20491;-79
2023/08/14 10:46:38;;;;;;;3.80;3.10;;;;;;;;;;10588616;27;20047;-76
2023/08/14 10:51:41;;;;;;;2.83;2.38;;;;;;;;;;10590988;27;20035;-78
2023/08/14 10:56:47;;;;;;;3.67;3.25;;;;;;;;;;10592476;27;20126;-78
2023/08/14 11:01:51;;;;;;;2.50;2.30;;;;;;;;;;10586517;27;20043;-78
2023/08/14 11:07:05;;;;;;;5.05;2.30;;;;;;;;;;10592873;27;20526;-77
2023/08/14 11:12:10;;;;;;;4.43;2.95;;;;;;;;;;10604945;27;20484;-78
2023/08/14 11:17:13;;;;;;;2.70;2.50;;;;;;;;;;10602389;27;20047;-77
2023/08/14 11:22:15;;;;;;;3.10;2.60;;;;;;;;;;10595321;27;20126;-78
2023/08/14 11:27:20;;;;;;;3.38;2.90;;;;;;;;;;10586486;27;20059;-79
2023/08/14 11:32:23;;;;;;;3.35;3.05;;;;;;;;;;10590842;27;20127;-78
2023/08/14 11:37:26;;;;;;;3.92;2.78;;;;;;;;;;10594683;27;20070;-78
2023/08/14 11:42:31;;;;;;;2.55;2.15;;;;;;;;;;10592374;27;20034;-78
2023/08/14 11:47:34;;;;;;;2.80;2.50;;;;;;;;;;10578981;27;20049;-78
2023/08/14 11:52:37;;;;;;;3.40;3.00;;;;;;;;;;10582155;27;20061;-78
2023/08/14 11:57:43;;;;;;;4.68;2.80;;;;;;;;;;10591070;27;20039;-79
2023/08/14 12:02:47;;;;;;;3.08;2.78;;;;;;;;;;10590112;27;20399;-77
2023/08/14 12:07:50;;;;;;;4.38;3.15;;;;;;;;;;10595314;27;20048;-77
2023/08/14 12:12:54;;;;;;;5.88;2.60;;;;;;;;;;10591939;27;20055;-77
2023/08/14 12:17:57;;;;;;;3.40;3.10;;;;;;;;;;10599116;27;20372;-77
2023/08/14 12:23:11;;;;;;;4.28;3.20;;;;;;;;;;10599270;27;20423;-77
2023/08/14 12:28:15;;;;;;;2.60;2.40;;;;;;;;;;10586738;27;20370;-77
2023/08/14 12:33:18;;;;;;;2.72;2.53;;;;;;;;;;10590003;27;20042;-77
2023/08/14 12:38:21;;;;;;;3.83;2.60;;;;;;;;;;10589783;27;20051;-78
2023/08/14 12:43:25;;;;;;;3.20;2.60;;;;;;;;;;10592128;27;20038;-77
2023/08/14 12:48:41;;;;;;;3.03;2.40;;;;;;;;;;10599149;27;20178;-77
2023/08/14 12:53:44;;;;;;;3.13;2.33;;;;;;;;;;10598167;27;20096;-78
2023/08/14 12:58:48;;;;;;;3.10;2.50;;;;;;;;;;10597554;27;20114;-77
2023/08/14 13:03:51;;;;;;;4.40;2.50;;;;;;;;;;10597513;27;20059;-76
2023/08/14 13:08:56;;;;;;;5.75;2.55;;;;;;;;;;10603975;27;20089;-77
2023/08/14 13:14:00;;;;;;;4.43;2.60;;;;;;;;;;10593193;27;20471;-77
2023/08/14 13:19:03;;;;;;;3.47;2.35;;;;;;;;;;10592234;27;20146;-77
2023/08/14 13:24:07;;;;;;;5.10;2.60;;;;;;;;;;10595383;27;20055;-76
2023/08/14 13:29:11;;;;;;;4.05;2.80;;;;;;;;;;10593673;27;20119;-78
2023/08/14 13:34:14;;;;;;;3.38;2.72;;;;;;;;;;10589992;27;20051;-78
2023/08/14 13:39:17;;;;;;;3.05;2.38;;;;;;;;;;10586298;27;20064;-78
2023/08/14 13:44:22;;;;;;;2.65;2.05;;;;;;;;;;10578278;27;20572;-78
2023/08/14 13:49:24;;;;;;;4.68;2.60;;;;;;;;;;10597371;27;20036;-79
2023/08/14 13:54:28;;;;;;;4.35;2.30;;;;;;;;;;10587901;27;20067;-80
2023/08/14 13:59:32;;;;;;;4.90;2.72;;;;;;;;;;10593285;27;20135;-79
2023/08/14 14:04:35;;;;;;;3.15;2.40;;;;;;;;;;10603696;27;20123;-76
2023/08/14 14:09:37;;;;;;;3.95;2.53;;;;;;;;;;10586129;27;20047;-77
2023/08/14 14:14:44;;;;;;;4.10;2.63;;;;;;;;;;10588695;27;20059;-77
2023/08/14 14:19:47;;;;;;;4.38;2.45;;;;;;;;;;10593970;27;20067;-77
2023/08/14 14:24:50;;;;;;;3.90;2.50;;;;;;;;;;10590380;27;20625;-78
2023/08/14 14:29:54;;;;;;;2.90;2.35;;;;;;;;;;10594939;27;20035;-78
2023/08/14 14:34:57;;;;;;;4.55;2.40;;;;;;;;;;10593685;27;20057;-78
2023/08/14 14:39:59;;;;;;;4.03;2.67;;;;;;;;;;10593840;27;20036;-78
2023/08/14 14:45:05;;;;;;;4.90;3.05;;;;;;;;;;10592543;27;20118;-78
2023/08/14 14:50:11;;;;;;;3.30;2.63;;;;;;;;;;10598244;27;20039;-77
2023/08/14 14:55:31;;;;;;;5.20;2.70;;;;;;;;;;10597383;27;20125;-77
2023/08/14 15:00:36;;;;;;;3.83;2.80;;;;;;;;;;10595117;27;20472;-78
2023/08/14 15:05:38;;;;;;;3.33;2.63;;;;;;;;;;10579690;27;20044;-78
2023/08/14 15:10:42;;;;;;;3.88;2.47;;;;;;;;;;10591321;27;20106;-78
2023/08/14 15:15:46;;;;;;;3.47;2.22;;;;;;;;;;10584007;27;20488;-78
2023/08/14 15:20:49;;;;;;;3.67;2.17;;;;;;;;;;10589822;27;20682;-77
2023/08/14 15:25:52;;;;;;;3.85;2.35;;;;;;;;;;10590105;27;20143;-77
2023/08/14 15:30:57;;;;;;;5.47;2.50;;;;;;;;;;10591729;27;20454;-78
2023/08/14 15:36:00;;;;;;;4.15;2.63;;;;;;;;;;10589329;27;20044;-78
2023/08/14 15:41:07;;;;;;;7.00;2.63;;;;;;;;;;10591395;27;20035;-78
2023/08/14 15:46:12;;;;;;;4.50;2.30;;;;;;;;;;10589417;27;20039;-77
2023/08/14 15:51:15;;;;;;;4.97;2.60;;;;;;;;;;10594396;27;20119;-76
2023/08/14 15:56:18;;;;;;;3.63;2.35;;;;;;;;;;10590033;27;20043;-78
2023/08/14 16:01:22;;;;;;;3.35;2.55;;;;;;;;;;10588569;27;20052;-77
2023/08/14 16:06:26;;;;;;;6.07;2.38;;;;;;;;;;10592643;27;20058;-78
2023/08/14 16:11:30;;;;;;;5.10;2.50;;;;;;;;;;10590781;27;20046;-78
2023/08/14 16:16:34;;;;;;;3.55;2.50;;;;;;;;;;10600963;27;20130;-77
2023/08/14 16:21:37;;;;;;;5.28;2.50;;;;;;;;;;10602235;27;20040;-77
2023/08/14 16:26:41;;;;;;;3.92;2.70;;;;;;;;;;10594904;27;20043;-77
2023/08/14 16:31:45;;;;;;;7.30;2.70;;;;;;;;;;10599736;27;20065;-78
2023/08/14 16:36:48;;;;;;;3.92;2.80;;;;;;;;;;10586086;27;20120;-77
2023/08/14 16:41:50;;;;;;;3.58;2.80;;;;;;;;;;10604856;27;20046;-77
2023/08/14 16:46:54;;;;;;;6.90;2.70;;;;;;;;;;10599719;27;20191;-77
2023/08/14 16:51:58;;;;;;;4.63;2.55;;;;;;;;;;10594468;27;20039;-77
2023/08/14 16:57:01;;;;;;;4.65;2.20;;;;;;;;;;10591819;27;20073;-77
2023/08/14 17:02:05;;;;;;;3.78;2.40;;;;;;;;;;10572008;27;20041;-77
2023/08/14 17:07:07;;;;;;;3.65;2.50;;;;;;;;;;10589080;27;20480;-77
2023/08/14 17:12:11;;;;;;;4.20;2.65;;;;;;;;;;10590968;27;20643;-77
2023/08/14 17:17:15;;;;;;;5.00;2.70;;;;;;;;;;10597074;27;20059;-77
2023/08/14 17:22:18;;;;;;;3.35;2.58;;;;;;;;;;10593649;27;20498;-76
2023/08/14 17:27:22;;;;;;;4.78;2.65;;;;;;;;;;10598963;27;20561;-76
2023/08/14 17:32:26;;;;;;;7.22;2.80;;;;;;;;;;10605083;27;20075;-76
2023/08/14 17:37:30;;;;;;;7.47;2.70;;;;;;;;;;10597770;27;20400;-77
2023/08/14 17:42:32;;;;;;;4.30;2.75;;;;;;;;;;10594288;27;20138;-77
2023/08/14 17:47:37;;;;;;;4.32;2.80;;;;;;;;;;10597572;27;20098;-76
2023/08/14 17:52:39;;;;;;;4.50;2.80;;;;;;;;;;10596049;27;20044;-75
2023/08/14 17:57:42;;;;;;;4.72;2.67;;;;;;;;;;10592223;27;20047;-76
2023/08/14 18:02:47;;;;;;;4.30;2.50;;;;;;;;;;10588499;27;20256;-77
2023/08/14 18:07:50;;;;;;;3.97;2.60;;;;;;;;;;10588348;27;20496;-76
2023/08/14 18:12:53;;;;;;;5.35;2.92;;;;;;;;;;10597488;27;20536;-76
2023/08/14 18:17:57;;;;;;;3.72;2.88;;;;;;;;;;10590815;27;20056;-76
2023/08/14 18:23:00;;;;;;;4.95;3.20;;;;;;;;;;10589697;27;20044;-77
2023/08/14 18:28:04;;;;;;;6.10;3.55;;;;;;;;;;10587851;27;20043;-76
2023/08/14 18:33:08;;;;;;;4.95;3.35;;;;;;;;;;10587864;27;20051;-76
2023/08/14 18:38:11;;;;;;;8.40;4.75;;;;;;;;;;10589143;27;20549;-77
2023/08/14 18:43:14;;;;;;;8.13;3.78;;;;;;;;;;10590123;27;20035;-76
2023/08/14 18:48:18;;;;;;;6.70;3.75;;;;;;;;;;10592274;27;20049;-77
2023/08/14 18:53:21;;;;;;;7.22;3.83;;;;;;;;;;10584136;27;20035;-77
2023/08/14 18:58:24;;;;;;;7.22;4.00;;;;;;;;;;10584339;27;20043;-77
2023/08/14 19:03:29;;;;;;;8.73;4.15;;;;;;;;;;10594499;27;20836;-77
2023/08/14 19:08:32;;;;;;;6.47;3.95;;;;;;;;;;10589045;27;20119;-77
2023/08/14 19:13:36;;;;;;;9.63;3.90;;;;;;;;;;10592861;27;20046;-76
2023/08/14 19:18:41;;;;;;;8.60;5.28;;;;;;;;;;10612128;27;20071;-76
2023/08/14 19:23:44;;;;;;;9.15;4.28;;;;;;;;;;10591184;27;20039;-76
2023/08/14 19:28:47;;;;;;;6.47;3.95;;;;;;;;;;10598595;27;20100;-76
2023/08/14 19:33:54;;;;;;;7.57;4.20;;;;;;;;;;10590648;27;20399;-77
2023/08/14 19:38:58;;;;;;;9.05;4.03;;;;;;;;;;10601316;27;20106;-77
2023/08/14 19:44:03;;;;;;;9.60;4.22;;;;;;;;;;10592635;27;20465;-77
2023/08/14 19:49:08;;;;;;;13.68;6.22;;;;;;;;;;10586464;27;20043;-77
2023/08/14 19:54:11;;;;;;;10.15;5.57;;;;;;;;;;10588558;27;20126;-77
2023/08/14 19:59:14;;;;;;;8.13;4.95;;;;;;;;;;10588259;27;20526;-76
2023/08/14 20:04:19;;;;;;;10.80;5.53;;;;;;;;;;10594087;27;20509;-77
2023/08/14 20:09:22;;;;;;;9.38;5.57;;;;;;;;;;10593387;27;20527;-76
2023/08/14 20:14:25;;;;;;;7.78;5.22;;;;;;;;;;10598460;27;20041;-76
2023/08/14 20:19:29;;;;;;;8.18;4.55;;;;;;;;;;10603640;27;20042;-77
2023/08/14 20:24:34;;;;;;;6.43;4.05;;;;;;;;;;10593955;27;20399;-76
2023/08/14 20:29:37;;;;;;;9.73;4.93;;;;;;;;;;10581874;27;20039;-76
2023/08/14 20:34:41;;;;;;;13.23;5.72;;;;;;;;;;10594512;27;20250;-77
2023/08/14 20:39:45;;;;;;;9.93;5.78;;;;;;;;;;10596550;27;20069;-77
2023/08/14 20:44:48;;;;;;;12.13;5.93;;;;;;;;;;10602484;27;20047;-75
2023/08/14 20:49:53;;;;;;;6.10;4.53;;;;;;;;;;10588640;27;20071;-77
2023/08/14 20:54:56;;;;;;;10.00;4.97;;;;;;;;;;10588841;27;20031;-77
2023/08/14 20:59:59;;;;;;;8.68;5.25;;;;;;;;;;10597536;27;20553;-77
2023/08/14 21:05:10;;;;;;;9.27;5.03;;;;;;;;;;10610963;27;20371;-78
2023/08/14 21:10:16;;;;;;;9.85;4.72;;;;;;;;;;10601979;27;20043;-75
2023/08/14 21:15:19;;;;;;;8.82;4.88;;;;;;;;;;10596599;27;20134;-76
2023/08/14 21:20:24;;;;;;;10.65;5.57;;;;;;;;;;10584397;27;20212;-77
2023/08/14 21:25:28;;;;;;;9.82;5.75;;;;;;;;;;10600571;27;20046;-77
2023/08/14 21:30:47;;;;;;;11.48;5.28;;;;;;;;;;10612176;27;20065;-76
2023/08/14 21:35:51;;;;;;;13.23;7.50;;;;;;;;;;10614483;27;20051;-78
2023/08/14 21:40:55;;;;;;;15.45;7.68;;;;;;;;;;10610604;27;20071;-75
2023/08/14 21:45:58;;;;;;;10.93;6.20;;;;;;;;;;10637040;27;20039;-76
2023/08/14 21:51:01;;;;;;;11.95;6.07;;;;;;;;;;10637665;27;20070;-77
2023/08/14 21:56:05;;;;;;;12.25;6.30;;;;;;;;;;10644890;27;20050;-78
2023/08/14 22:01:08;;;;;;;8.10;5.38;;;;;;;;;;10626005;27;20043;-75
2023/08/14 22:06:12;;;;;;;10.35;5.63;;;;;;;;;;10633866;27;20099;-76
2023/08/14 22:11:15;;;;;;;11.15;5.88;;;;;;;;;;10631192;27;20047;-76
2023/08/14 22:16:18;;;;;;;10.80;6.38;;;;;;;;;;10602869;27;20059;-76
2023/08/14 22:21:23;;;;;;;11.52;5.85;;;;;;;;;;10594718;27;20061;-76
2023/08/14 22:26:26;;;;;;;9.93;5.70;;;;;;;;;;10580806;27;20108;-76
2023/08/14 22:31:29;;;;;;;;;;;;;;;;;;10592988;27;20035;-76
2023/08/14 22:36:33;;;;;;;10.00;5.77;;;;;;;;;;10580091;27;20423;-77
2023/08/14 22:41:36;;;;;;;12.00;6.15;;;;;;;;;;10586874;27;20305;-76
2023/08/14 22:46:38;;;;;;;;;;;;;;;;;;10589541;27;20043;-76
2023/08/14 22:51:43;;;;;;;9.97;6.10;;;;;;;;;;10596750;27;19944;-76
2023/08/14 22:56:46;;;;;;;12.00;5.97;;;;;;;;;;10596017;27;20296;-76
2023/08/14 23:01:49;;;;;;;;;;;;;;;;;;10593089;27;20079;-76
2023/08/14 23:06:55;;;;;;;9.52;5.32;;;;;;;;;;10588593;27;19920;-76
2023/08/14 23:12:00;;;;;;;7.47;4.82;;;;;;;;;;10608827;27;20138;-76
2023/08/14 23:17:03;;;;;;;8.82;5.45;;;;;;;;;;10598930;27;20038;-76
2023/08/14 23:22:08;;;;;;;8.88;5.25;;;;;;;;;;10594094;27;20039;-77
2023/08/14 23:27:10;;;;;;;8.85;5.53;;;;;;;;;;10600295;27;20058;-75
2023/08/14 23:32:13;;;;;;;;;;;;;;;;;;10590057;27;20088;-76
2023/08/14 23:37:18;;;;;;;8.73;5.00;;;;;;;;;;10593449;27;19923;-76
2023/08/14 23:42:21;;;;;;;12.15;5.80;;;;;;;;;;10569891;27;20135;-77
2023/08/14 23:47:27;;;;;;;7.80;5.10;;;;;;;;;;10589706;27;20118;-76
2023/08/14 23:52:31;;;;;;;7.82;5.43;;;;;;;;;;10602705;27;20116;-75
2023/08/14 23:57:33;;;;;;;7.80;5.10;;;;;;;;;;10608284;27;20061;-76
